Time;durP1;ratioP1;P1;durP2;ratioP2;P2;SDS_P1;SDS_P2;PMS_P1;PMS_P2;Temp;Humidity;BMP_temperature;BMP_pressure;BME280_temperature;BME280_humidity;BME280_pressure;Samples;Min_cycle;Max_cycle;Signal;HPM_P1;HPM_P2
2021/09/05 00:01:06;;;;;;;11.15;4.68;;;;;;;;;;5034404;28;20036;-55
2021/09/05 00:03:32;;;;;;;10.43;4.85;;;;;;;;;;5033608;28;20112;-55
2021/09/05 00:05:58;;;;;;;6.57;5.03;;;;;;;;;;5014572;28;20018;-54
2021/09/05 00:08:24;;;;;;;9.60;4.00;;;;;;;;;;5026800;28;20041;-54
2021/09/05 00:10:50;;;;;;;9.32;4.53;;;;;;;;;;5034126;28;20120;-54
2021/09/05 00:13:16;;;;;;;8.52;4.55;;;;;;;;;;5034167;28;20038;-54
2021/09/05 00:15:42;;;;;;;7.97;4.47;;;;;;;;;;5034198;28;20021;-55
2021/09/05 00:18:08;;;;;;;7.28;4.15;;;;;;;;;;5032229;28;20037;-54
2021/09/05 00:20:34;;;;;;;8.63;3.78;;;;;;;;;;5033908;28;20050;-54
2021/09/05 00:23:03;;;;;;;7.25;4.28;;;;;;;;;;5033436;28;20025;-54
2021/09/05 00:25:29;;;;;;;22.77;5.43;;;;;;;;;;5034198;28;20029;-55
2021/09/05 00:27:55;;;;;;;12.55;4.22;;;;;;;;;;5032853;28;20037;-54
2021/09/05 00:30:22;;;;;;;6.03;3.50;;;;;;;;;;5033307;28;20025;-54
2021/09/05 00:32:47;;;;;;;6.88;4.35;;;;;;;;;;5033113;28;20043;-54
2021/09/05 00:35:14;;;;;;;10.40;4.70;;;;;;;;;;5033851;28;20033;-55
2021/09/05 00:37:40;;;;;;;9.18;4.88;;;;;;;;;;5032087;28;20026;-54
2021/09/05 00:40:07;;;;;;;12.75;4.57;;;;;;;;;;5033805;28;20116;-54
2021/09/05 00:42:33;;;;;;;7.70;3.83;;;;;;;;;;5033337;28;20044;-55
2021/09/05 00:44:59;;;;;;;7.47;4.10;;;;;;;;;;5033792;28;20026;-55
2021/09/05 00:47:25;;;;;;;5.97;3.97;;;;;;;;;;5032161;28;20045;-55
2021/09/05 00:49:50;;;;;;;9.40;4.68;;;;;;;;;;5033538;28;20037;-55
2021/09/05 00:52:18;;;;;;;7.40;4.43;;;;;;;;;;5031387;28;20037;-55
2021/09/05 00:54:45;;;;;;;5.60;3.75;;;;;;;;;;5032710;28;20372;-55
2021/09/05 00:57:14;;;;;;;8.20;4.10;;;;;;;;;;5032997;28;20022;-55
2021/09/05 00:59:41;;;;;;;12.60;4.22;;;;;;;;;;5033538;28;20022;-55
2021/09/05 01:02:08;;;;;;;12.23;4.50;;;;;;;;;;5033038;28;20061;-55
2021/09/05 01:04:34;;;;;;;10.15;4.45;;;;;;;;;;5033015;28;20096;-55
2021/09/05 01:07:00;;;;;;;6.80;4.55;;;;;;;;;;5031978;28;20028;-54
2021/09/05 01:09:27;;;;;;;7.28;4.43;;;;;;;;;;5032561;28;20123;-54
2021/09/05 01:11:54;;;;;;;7.40;3.92;;;;;;;;;;5032769;28;20428;-54
2021/09/05 01:14:20;;;;;;;7.32;4.32;;;;;;;;;;5033301;28;20029;-54
2021/09/05 01:16:46;;;;;;;6.60;3.97;;;;;;;;;;5032530;28;20415;-55
2021/09/05 01:19:16;;;;;;;12.25;4.55;;;;;;;;;;5032162;28;20359;-54
2021/09/05 01:21:43;;;;;;;11.55;4.35;;;;;;;;;;5032403;28;20040;-54
2021/09/05 01:24:09;;;;;;;5.63;3.75;;;;;;;;;;5032326;28;20395;-54
2021/09/05 01:26:36;;;;;;;7.47;4.22;;;;;;;;;;5033020;28;20014;-55
2021/09/05 01:29:03;;;;;;;7.40;3.85;;;;;;;;;;5032644;28;20033;-54
2021/09/05 01:31:43;;;;;;;10.25;4.60;;;;;;;;;;5032819;28;20095;-54
2021/09/05 01:34:09;;;;;;;7.43;4.20;;;;;;;;;;5025606;28;20017;-55
2021/09/05 01:36:36;;;;;;;12.00;4.22;;;;;;;;;;5032857;28;20120;-55
2021/09/05 01:39:03;;;;;;;7.03;4.60;;;;;;;;;;5031647;28;20022;-54
2021/09/05 01:41:29;;;;;;;16.30;4.60;;;;;;;;;;5032922;28;20076;-54
2021/09/05 01:44:24;;;;;;;7.57;4.13;;;;;;;;;;5032561;28;20029;-54
2021/09/05 01:46:50;;;;;;;12.00;4.78;;;;;;;;;;5009775;28;20033;-54
2021/09/05 01:49:16;;;;;;;7.65;4.32;;;;;;;;;;5009729;28;20037;-54
2021/09/05 01:51:42;;;;;;;12.68;4.38;;;;;;;;;;4991856;28;20413;-54
2021/09/05 01:54:08;;;;;;;12.32;4.55;;;;;;;;;;5002717;28;20413;-54
2021/09/05 01:56:35;;;;;;;8.82;4.55;;;;;;;;;;5010238;28;20030;-54
2021/09/05 01:59:01;;;;;;;8.02;4.45;;;;;;;;;;5010005;28;20026;-54
2021/09/05 02:01:28;;;;;;;8.07;4.32;;;;;;;;;;5010372;28;20026;-54
2021/09/05 02:03:54;;;;;;;10.45;4.53;;;;;;;;;;5009377;28;20117;-54
2021/09/05 02:06:20;;;;;;;8.02;4.55;;;;;;;;;;4999633;28;20065;-55
2021/09/05 02:08:46;;;;;;;7.55;4.00;;;;;;;;;;5001721;28;20050;-54
2021/09/05 02:11:13;;;;;;;9.10;4.40;;;;;;;;;;5013751;28;20084;-54
2021/09/05 02:13:39;;;;;;;7.78;4.05;;;;;;;;;;5014419;28;20400;-54
2021/09/05 02:16:05;;;;;;;7.72;4.32;;;;;;;;;;5014010;28;20026;-54
2021/09/05 02:18:31;;;;;;;8.95;4.78;;;;;;;;;;5012488;28;20045;-54
2021/09/05 02:20:57;;;;;;;8.52;4.38;;;;;;;;;;5002320;28;20027;-54
2021/09/05 02:23:23;;;;;;;9.23;4.63;;;;;;;;;;5027174;28;20471;-54
2021/09/05 02:25:49;;;;;;;6.68;3.97;;;;;;;;;;5036048;28;20336;-54
2021/09/05 02:28:15;;;;;;;6.95;4.22;;;;;;;;;;5035201;28;20094;-54
2021/09/05 02:30:41;;;;;;;6.05;4.00;;;;;;;;;;5036218;28;20108;-54
2021/09/05 02:33:07;;;;;;;9.13;4.75;;;;;;;;;;5035159;28;20463;-54
2021/09/05 02:35:33;;;;;;;11.10;4.75;;;;;;;;;;5035884;28;20076;-54
2021/09/05 02:37:59;;;;;;;8.18;4.38;;;;;;;;;;5035508;28;20138;-54
2021/09/05 02:40:25;;;;;;;7.45;4.30;;;;;;;;;;5034865;28;20035;-54
2021/09/05 02:42:51;;;;;;;8.00;4.32;;;;;;;;;;5035837;28;20113;-54
2021/09/05 02:45:17;;;;;;;12.60;4.82;;;;;;;;;;5035807;28;20052;-54
2021/09/05 02:47:44;;;;;;;9.00;4.38;;;;;;;;;;5034846;28;20040;-54
2021/09/05 02:50:10;;;;;;;12.77;4.28;;;;;;;;;;5034219;28;20108;-54
2021/09/05 02:52:36;;;;;;;12.70;4.00;;;;;;;;;;5034798;28;20029;-54
2021/09/05 02:55:02;;;;;;;9.30;5.03;;;;;;;;;;5035013;28;20459;-54
2021/09/05 02:57:28;;;;;;;9.30;4.70;;;;;;;;;;5035182;28;20041;-54
2021/09/05 02:59:54;;;;;;;11.02;4.95;;;;;;;;;;5035662;28;20501;-54
2021/09/05 03:02:20;;;;;;;10.88;5.00;;;;;;;;;;5034859;28;20025;-54
2021/09/05 03:04:46;;;;;;;8.52;4.95;;;;;;;;;;5035155;28;20053;-54
2021/09/05 03:07:12;;;;;;;8.15;4.82;;;;;;;;;;5034653;28;20448;-54
2021/09/05 03:09:40;;;;;;;10.63;4.47;;;;;;;;;;5035000;28;20087;-54
2021/09/05 03:12:06;;;;;;;11.55;4.95;;;;;;;;;;5035559;28;20068;-54
2021/09/05 03:14:32;;;;;;;9.05;4.65;;;;;;;;;;5035047;28;20455;-54
2021/09/05 03:16:58;;;;;;;13.75;4.93;;;;;;;;;;5033756;28;20032;-54
2021/09/05 03:19:24;;;;;;;9.75;4.85;;;;;;;;;;5034364;28;20026;-54
2021/09/05 03:21:50;;;;;;;8.32;4.82;;;;;;;;;;5034818;28;20028;-54
2021/09/05 03:24:16;;;;;;;7.60;4.88;;;;;;;;;;5034622;28;20355;-54
2021/09/05 03:26:42;;;;;;;9.48;4.55;;;;;;;;;;5035225;28;20074;-54
2021/09/05 03:29:08;;;;;;;8.57;3.85;;;;;;;;;;5034081;28;20124;-54
2021/09/05 03:31:34;;;;;;;6.95;4.13;;;;;;;;;;5035060;28;20026;-54
2021/09/05 03:34:00;;;;;;;7.13;4.35;;;;;;;;;;5034269;28;20033;-54
2021/09/05 03:36:26;;;;;;;13.70;4.72;;;;;;;;;;5034981;28;20108;-54
2021/09/05 03:38:52;;;;;;;9.38;4.47;;;;;;;;;;5033031;28;20104;-54
2021/09/05 03:41:18;;;;;;;10.98;4.18;;;;;;;;;;5035270;28;20040;-54
2021/09/05 03:43:45;;;;;;;9.68;4.97;;;;;;;;;;5034975;28;20112;-54
2021/09/05 03:46:11;;;;;;;6.38;3.83;;;;;;;;;;5034811;28;20053;-54
2021/09/05 03:48:37;;;;;;;8.00;4.40;;;;;;;;;;5033187;28;20041;-54
2021/09/05 03:51:03;;;;;;;8.07;4.38;;;;;;;;;;5033377;28;20018;-55
2021/09/05 03:53:29;;;;;;;8.10;4.72;;;;;;;;;;5034020;28;20028;-55
2021/09/05 03:55:55;;;;;;;6.88;4.53;;;;;;;;;;5033551;28;20362;-54
2021/09/05 03:58:22;;;;;;;9.95;4.88;;;;;;;;;;5033563;28;20028;-54
2021/09/05 04:00:48;;;;;;;10.13;5.22;;;;;;;;;;5034226;28;20447;-54
2021/09/05 04:03:14;;;;;;;10.10;4.90;;;;;;;;;;5033109;28;20029;-54
2021/09/05 04:05:40;;;;;;;7.95;3.67;;;;;;;;;;5032692;28;20022;-54
2021/09/05 04:10:33;;;;;;;10.27;5.55;;;;;;;;;;5033669;28;20026;-54
2021/09/05 04:12:59;;;;;;;9.20;4.85;;;;;;;;;;5033801;28;20030;-55
2021/09/05 04:15:26;;;;;;;11.40;5.18;;;;;;;;;;5033948;28;20087;-55
2021/09/05 04:17:52;;;;;;;8.60;4.80;;;;;;;;;;5033310;28;20036;-55
2021/09/05 04:20:19;;;;;;;10.02;4.22;;;;;;;;;;5033826;28;20026;-55
2021/09/05 04:22:45;;;;;;;6.15;3.80;;;;;;;;;;5033879;28;20023;-54
2021/09/05 04:25:11;;;;;;;7.38;4.35;;;;;;;;;;5033172;28;20104;-54
2021/09/05 04:27:37;;;;;;;8.73;5.18;;;;;;;;;;5033397;28;20034;-55
2021/09/05 04:30:04;;;;;;;6.47;4.13;;;;;;;;;;5033232;28;20121;-54
2021/09/05 04:32:30;;;;;;;9.88;5.20;;;;;;;;;;5033893;28;20117;-54
2021/09/05 04:34:56;;;;;;;7.47;4.32;;;;;;;;;;5025129;28;20105;-54
2021/09/05 04:37:22;;;;;;;6.85;4.45;;;;;;;;;;5032977;28;20033;-54
2021/09/05 04:39:48;;;;;;;7.38;4.40;;;;;;;;;;5032882;28;20021;-55
2021/09/05 04:42:14;;;;;;;7.00;4.53;;;;;;;;;;5032099;28;20033;-54
2021/09/05 04:44:40;;;;;;;9.95;3.92;;;;;;;;;;5033959;28;20029;-54
2021/09/05 04:47:06;;;;;;;7.25;3.78;;;;;;;;;;5032518;28;20415;-55
2021/09/05 04:49:32;;;;;;;8.00;4.38;;;;;;;;;;5033400;28;20037;-54
2021/09/05 04:51:59;;;;;;;12.23;4.25;;;;;;;;;;5025477;28;20097;-54
2021/09/05 04:54:25;;;;;;;11.40;5.03;;;;;;;;;;5032520;28;20440;-54
2021/09/05 04:56:51;;;;;;;9.43;4.72;;;;;;;;;;5032991;28;20032;-54
2021/09/05 04:59:17;;;;;;;8.30;5.28;;;;;;;;;;5032958;28;20116;-54
2021/09/05 05:01:43;;;;;;;10.57;4.85;;;;;;;;;;5033383;28;20021;-54
2021/09/05 05:04:09;;;;;;;8.05;4.38;;;;;;;;;;5032668;28;20053;-54
2021/09/05 05:06:34;;;;;;;9.32;5.03;;;;;;;;;;5033314;28;20029;-54
2021/09/05 05:09:00;;;;;;;11.70;5.45;;;;;;;;;;5032278;28;20029;-54
2021/09/05 05:11:27;;;;;;;9.68;4.78;;;;;;;;;;5032596;28;20072;-54
2021/09/05 05:13:53;;;;;;;10.70;4.38;;;;;;;;;;5033360;28;20052;-54
2021/09/05 05:16:20;;;;;;;10.80;4.07;;;;;;;;;;5033146;28;20025;-54
2021/09/05 05:18:46;;;;;;;8.73;4.30;;;;;;;;;;5031801;28;20048;-54
2021/09/05 05:21:12;;;;;;;10.68;4.35;;;;;;;;;;5032891;28;20443;-54
2021/09/05 05:23:38;;;;;;;9.85;4.57;;;;;;;;;;5032412;28;20025;-55
2021/09/05 05:26:04;;;;;;;11.18;3.85;;;;;;;;;;5032111;28;20394;-55
2021/09/05 05:28:30;;;;;;;9.82;3.95;;;;;;;;;;5032246;28;20041;-54
2021/09/05 05:30:56;;;;;;;8.27;4.30;;;;;;;;;;5031407;28;20033;-54
2021/09/05 05:33:22;;;;;;;9.80;4.25;;;;;;;;;;5032504;28;20044;-55
2021/09/05 05:35:48;;;;;;;5.30;3.67;;;;;;;;;;5032043;28;20389;-55
2021/09/05 05:38:14;;;;;;;9.88;3.83;;;;;;;;;;5031795;28;20018;-55
2021/09/05 05:40:40;;;;;;;10.45;4.82;;;;;;;;;;5031230;28;20026;-54
2021/09/05 05:43:06;;;;;;;7.18;4.45;;;;;;;;;;5031531;28;20416;-55
2021/09/05 05:45:31;;;;;;;12.02;4.35;;;;;;;;;;5032830;28;20482;-55
2021/09/05 05:47:57;;;;;;;7.43;4.10;;;;;;;;;;5032295;28;20103;-55
2021/09/05 05:50:24;;;;;;;10.40;4.22;;;;;;;;;;5031699;28;20053;-54
2021/09/05 05:52:51;;;;;;;5.78;4.25;;;;;;;;;;5032886;28;20056;-55
2021/09/05 05:55:17;;;;;;;7.72;3.95;;;;;;;;;;5031931;28;20363;-55
2021/09/05 05:57:43;;;;;;;8.38;4.45;;;;;;;;;;5031801;28;20224;-55
2021/09/05 06:00:10;;;;;;;8.70;4.15;;;;;;;;;;5032942;28;20021;-55
2021/09/05 06:02:36;;;;;;;14.60;5.88;;;;;;;;;;5033237;28;20060;-55
2021/09/05 06:05:03;;;;;;;19.25;7.85;;;;;;;;;;5032164;28;20076;-55
2021/09/05 06:07:29;;;;;;;17.88;8.15;;;;;;;;;;5031298;28;20037;-55
2021/09/05 06:09:55;;;;;;;14.15;6.90;;;;;;;;;;5031457;28;20067;-56
2021/09/05 06:12:21;;;;;;;17.02;7.22;;;;;;;;;;5033167;28;20048;-56
2021/09/05 06:14:47;;;;;;;21.35;8.80;;;;;;;;;;5032485;28;20118;-56
2021/09/05 06:17:13;;;;;;;16.50;6.68;;;;;;;;;;5031911;28;20350;-55
2021/09/05 06:19:39;;;;;;;14.40;6.65;;;;;;;;;;5031659;28;20455;-56
2021/09/05 06:22:05;;;;;;;12.30;6.15;;;;;;;;;;5032539;28;20026;-55
2021/09/05 06:24:31;;;;;;;12.45;6.32;;;;;;;;;;5031755;28;20029;-56
2021/09/05 06:26:57;;;;;;;18.92;6.53;;;;;;;;;;5030919;28;20103;-54
2021/09/05 06:29:24;;;;;;;12.52;5.40;;;;;;;;;;5032250;28;20031;-54
2021/09/05 06:31:50;;;;;;;9.82;4.53;;;;;;;;;;5032288;28;20022;-54
2021/09/05 06:34:16;;;;;;;13.98;5.70;;;;;;;;;;5031977;28;20531;-55
2021/09/05 06:36:42;;;;;;;8.25;4.95;;;;;;;;;;5031988;28;20075;-55
2021/09/05 06:39:08;;;;;;;11.27;5.68;;;;;;;;;;5031556;28;20029;-55
2021/09/05 06:41:34;;;;;;;14.15;5.93;;;;;;;;;;5031196;28;20487;-54
2021/09/05 06:44:00;;;;;;;14.27;6.55;;;;;;;;;;5032372;28;20511;-54
2021/09/05 06:46:26;;;;;;;13.05;6.63;;;;;;;;;;5032073;28;20029;-54
2021/09/05 06:48:52;;;;;;;17.52;7.15;;;;;;;;;;5029385;28;20064;-54
2021/09/05 06:51:18;;;;;;;14.82;6.32;;;;;;;;;;5032539;28;20057;-54
2021/09/05 06:53:44;;;;;;;15.57;7.68;;;;;;;;;;5035506;28;20079;-54
2021/09/05 06:56:10;;;;;;;14.00;7.22;;;;;;;;;;5034257;28;20364;-54
2021/09/05 06:58:36;;;;;;;13.32;6.88;;;;;;;;;;5035298;28;20083;-54
2021/09/05 07:01:03;;;;;;;14.00;7.57;;;;;;;;;;5035654;28;20026;-55
2021/09/05 07:03:29;;;;;;;15.65;8.65;;;;;;;;;;5035245;28;20029;-54
2021/09/05 07:05:55;;;;;;;17.38;7.50;;;;;;;;;;5035117;28;20031;-54
2021/09/05 07:08:21;;;;;;;12.05;6.40;;;;;;;;;;5034408;28;20451;-54
2021/09/05 07:10:47;;;;;;;13.88;6.25;;;;;;;;;;5034524;28;20083;-54
2021/09/05 07:13:13;;;;;;;11.93;6.78;;;;;;;;;;5035660;28;20609;-54
2021/09/05 07:15:39;;;;;;;15.88;7.32;;;;;;;;;;5033246;28;20040;-54
2021/09/05 07:18:05;;;;;;;15.73;6.25;;;;;;;;;;5035030;28;20018;-55
2021/09/05 07:20:31;;;;;;;14.25;7.30;;;;;;;;;;5034687;28;20037;-54
2021/09/05 07:22:57;;;;;;;16.20;6.47;;;;;;;;;;5034950;28;20029;-55
2021/09/05 07:25:26;;;;;;;13.40;7.72;;;;;;;;;;5035134;28;20029;-54
2021/09/05 07:27:52;;;;;;;15.82;7.90;;;;;;;;;;5032629;28;20451;-54
2021/09/05 07:30:18;;;;;;;16.60;8.20;;;;;;;;;;5034456;28;20052;-54
2021/09/05 07:32:44;;;;;;;16.13;7.97;;;;;;;;;;5034927;28;20029;-55
2021/09/05 07:35:10;;;;;;;24.00;13.27;;;;;;;;;;5034148;28;20021;-54
2021/09/05 07:37:37;;;;;;;28.63;14.82;;;;;;;;;;5033630;28;20026;-53
2021/09/05 07:40:03;;;;;;;35.97;18.70;;;;;;;;;;5035299;28;20022;-51
2021/09/05 07:42:30;;;;;;;42.65;17.60;;;;;;;;;;5033616;28;20467;-52
2021/09/05 07:44:58;;;;;;;25.90;10.05;;;;;;;;;;5034897;28;20352;-54
2021/09/05 07:47:24;;;;;;;29.27;11.93;;;;;;;;;;5033741;28;20451;-54
2021/09/05 07:49:50;;;;;;;19.00;8.98;;;;;;;;;;5034106;28;20112;-54
2021/09/05 07:52:16;;;;;;;19.00;10.30;;;;;;;;;;5034008;28;20120;-54
2021/09/05 07:54:42;;;;;;;30.67;14.80;;;;;;;;;;5034747;28;20033;-54
2021/09/05 07:57:08;;;;;;;25.05;10.75;;;;;;;;;;5032622;28;20045;-54
2021/09/05 07:59:34;;;;;;;27.00;11.52;;;;;;;;;;5034583;28;20029;-54
2021/09/05 08:02:00;;;;;;;13.80;8.48;;;;;;;;;;5033715;28;20355;-54
2021/09/05 08:04:26;;;;;;;18.42;9.35;;;;;;;;;;5034329;28;20037;-54
2021/09/05 08:06:52;;;;;;;44.55;23.58;;;;;;;;;;5033483;28;20079;-57
2021/09/05 08:09:18;;;;;;;24.23;11.90;;;;;;;;;;5033741;28;20029;-54
2021/09/05 08:11:44;;;;;;;19.50;9.68;;;;;;;;;;5032992;28;20117;-54
2021/09/05 08:14:10;;;;;;;20.50;10.20;;;;;;;;;;5034300;28;20029;-54
2021/09/05 08:16:38;;;;;;;20.95;11.27;;;;;;;;;;5047557;28;20076;-53
2021/09/05 08:19:04;;;;;;;21.98;10.15;;;;;;;;;;5033175;28;20033;-54
2021/09/05 08:21:30;;;;;;;18.58;9.05;;;;;;;;;;5033828;28;20040;-54
2021/09/05 08:23:56;;;;;;;19.08;11.02;;;;;;;;;;5033676;28;20018;-54
2021/09/05 08:26:23;;;;;;;18.52;10.18;;;;;;;;;;5033497;28;20044;-54
2021/09/05 08:28:49;;;;;;;23.38;11.02;;;;;;;;;;5033217;28;20091;-53
2021/09/05 08:31:15;;;;;;;17.70;9.25;;;;;;;;;;5033618;28;20040;-54
2021/09/05 08:33:41;;;;;;;18.05;10.07;;;;;;;;;;5033750;28;20033;-54
2021/09/05 08:36:07;;;;;;;22.10;11.15;;;;;;;;;;5033002;28;20051;-53
2021/09/05 08:38:33;;;;;;;25.58;13.05;;;;;;;;;;5033004;28;20451;-53
2021/09/05 08:41:00;;;;;;;31.92;14.73;;;;;;;;;;5033415;28;20029;-53
2021/09/05 08:43:26;;;;;;;20.15;9.18;;;;;;;;;;5032986;28;20034;-52
2021/09/05 08:45:52;;;;;;;17.95;8.93;;;;;;;;;;5033535;28;20022;-53
2021/09/05 08:48:18;;;;;;;15.85;9.40;;;;;;;;;;5032478;28;20168;-53
2021/09/05 08:50:45;;;;;;;26.52;12.15;;;;;;;;;;5031935;28;20022;-53
2021/09/05 08:53:11;;;;;;;16.95;9.45;;;;;;;;;;5032298;28;20021;-53
2021/09/05 08:55:37;;;;;;;15.95;7.38;;;;;;;;;;5032604;28;20032;-53
2021/09/05 08:58:03;;;;;;;18.20;9.77;;;;;;;;;;5030126;28;20025;-53
2021/09/05 09:00:29;;;;;;;17.42;7.82;;;;;;;;;;5031839;28;20022;-53
2021/09/05 09:02:58;;;;;;;17.88;6.53;;;;;;;;;;5032046;28;20025;-52
2021/09/05 09:05:51;;;;;;;13.32;6.28;;;;;;;;;;5030349;28;20037;-54
2021/09/05 09:08:18;;;;;;;10.52;6.07;;;;;;;;;;5025620;28;20136;-53
2021/09/05 09:10:50;;;;;;;12.05;7.28;;;;;;;;;;5032936;28;20030;-53
2021/09/05 09:13:42;;;;;;;15.65;6.78;;;;;;;;;;5032146;28;20041;-53
2021/09/05 09:16:13;;;;;;;11.93;5.57;;;;;;;;;;5031043;28;20037;-58
2021/09/05 09:18:40;;;;;;;10.70;6.05;;;;;;;;;;5032230;28;20029;-53
2021/09/05 09:21:07;;;;;;;12.23;6.63;;;;;;;;;;5032442;28;20033;-52
2021/09/05 09:23:34;;;;;;;12.85;5.85;;;;;;;;;;5033063;28;20033;-52
2021/09/05 09:26:14;;;;;;;10.82;6.20;;;;;;;;;;5033285;28;20040;-51
2021/09/05 09:28:44;;;;;;;22.40;5.90;;;;;;;;;;5031400;28;20148;-50
2021/09/05 09:31:10;;;;;;;;;;;;;;;;;;5033470;28;20369;-52
2021/09/05 09:33:36;;;;;;;11.43;5.25;;;;;;;;;;5033085;28;20338;-50
2021/09/05 09:36:02;;;;;;;8.40;4.10;;;;;;;;;;5032568;28;20103;-50
2021/09/05 09:38:29;;;;;;;7.95;4.38;;;;;;;;;;5032175;28;20025;-51
2021/09/05 09:41:08;;;;;;;6.47;3.92;;;;;;;;;;5032666;28;20025;-51
2021/09/05 09:43:34;;;;;;;9.00;4.82;;;;;;;;;;5031852;28;20025;-51
2021/09/05 09:46:13;;;;;;;11.35;4.57;;;;;;;;;;5032379;28;20363;-51
2021/09/05 09:48:44;;;;;;;21.70;5.45;;;;;;;;;;5032177;28;20045;-52
2021/09/05 09:51:10;;;;;;;20.20;6.00;;;;;;;;;;5030755;28;20068;-51
2021/09/05 09:53:38;;;;;;;33.78;5.03;;;;;;;;;;5032161;28;20039;-52
2021/09/05 09:56:05;;;;;;;185.88;16.60;;;;;;;;;;5032762;28;20028;-51
2021/09/05 09:58:31;;;;;;;50.00;6.00;;;;;;;;;;5031124;28;20061;-51
2021/09/05 10:00:58;;;;;;;9.80;5.35;;;;;;;;;;5032845;28;20053;-51
2021/09/05 10:03:25;;;;;;;8.93;5.15;;;;;;;;;;5032632;28;20448;-51
2021/09/05 10:05:52;;;;;;;8.00;4.65;;;;;;;;;;5031669;28;20374;-51
2021/09/05 10:08:19;;;;;;;7.90;4.35;;;;;;;;;;5031094;28;20029;-51
2021/09/05 10:10:46;;;;;;;7.53;4.40;;;;;;;;;;5033122;28;20205;-51
2021/09/05 10:13:12;;;;;;;17.15;4.60;;;;;;;;;;5031370;28;20140;-51
2021/09/05 10:15:38;;;;;;;9.63;4.63;;;;;;;;;;5031717;28;20459;-53
2021/09/05 10:18:05;;;;;;;7.53;4.20;;;;;;;;;;5031250;28;20060;-52
2021/09/05 10:20:31;;;;;;;8.45;4.43;;;;;;;;;;5031348;28;20104;-51
2021/09/05 10:22:57;;;;;;;8.75;4.45;;;;;;;;;;5032181;28;20436;-52
2021/09/05 10:25:23;;;;;;;10.35;4.63;;;;;;;;;;5031527;28;20083;-51
2021/09/05 10:27:50;;;;;;;11.23;4.28;;;;;;;;;;5034242;28;20399;-52
2021/09/05 10:30:16;;;;;;;7.65;4.05;;;;;;;;;;5035180;28;20033;-51
2021/09/05 10:32:42;;;;;;;9.82;3.55;;;;;;;;;;5035459;28;20447;-51
2021/09/05 10:35:26;;;;;;;8.75;3.90;;;;;;;;;;5035269;28;20057;-51
2021/09/05 10:38:11;;;;;;;11.13;3.85;;;;;;;;;;5033602;28;20049;-52
2021/09/05 10:40:41;;;;;;;5.43;3.25;;;;;;;;;;5035404;28;20523;-51
2021/09/05 10:43:07;;;;;;;7.10;3.53;;;;;;;;;;5034909;28;20036;-51
2021/09/05 10:45:34;;;;;;;5.93;3.33;;;;;;;;;;5035008;28;20706;-51
2021/09/05 10:48:00;;;;;;;11.68;4.05;;;;;;;;;;5034141;28;20412;-52
2021/09/05 10:50:33;;;;;;;8.05;4.10;;;;;;;;;;5034009;28;20030;-51
2021/09/05 10:53:19;;;;;;;7.05;3.00;;;;;;;;;;5027703;28;20021;-52
2021/09/05 10:56:05;;;;;;;6.10;3.90;;;;;;;;;;5035130;28;20116;-52
2021/09/05 10:58:36;;;;;;;8.82;3.83;;;;;;;;;;5033367;28;20041;-51
2021/09/05 11:01:03;;;;;;;5.95;3.53;;;;;;;;;;5035785;28;20025;-51
2021/09/05 11:03:29;;;;;;;6.18;3.42;;;;;;;;;;5035458;28;20028;-51
2021/09/05 11:06:13;;;;;;;7.32;4.00;;;;;;;;;;5034929;28;20029;-52
2021/09/05 11:08:39;;;;;;;7.43;3.78;;;;;;;;;;5034444;28;20037;-51
2021/09/05 11:11:05;;;;;;;6.55;3.80;;;;;;;;;;5035663;28;20029;-52
2021/09/05 11:13:50;;;;;;;7.43;3.20;;;;;;;;;;5034242;28;20036;-52
2021/09/05 11:16:19;;;;;;;7.10;3.50;;;;;;;;;;5035493;28;20022;-51
2021/09/05 11:18:45;;;;;;;7.45;3.88;;;;;;;;;;5034646;28;20440;-52
2021/09/05 11:21:31;;;;;;;8.25;3.30;;;;;;;;;;5034786;28;20521;-51
2021/09/05 11:23:57;;;;;;;11.30;3.50;;;;;;;;;;5033842;28;20453;-51
2021/09/05 11:26:23;;;;;;;9.75;3.40;;;;;;;;;;5035517;28;20053;-51
2021/09/05 11:28:50;;;;;;;4.30;3.10;;;;;;;;;;5033516;28;20041;-52
2021/09/05 11:31:16;;;;;;;4.53;3.17;;;;;;;;;;5034795;28;20045;-52
2021/09/05 11:33:42;;;;;;;6.15;3.55;;;;;;;;;;5035252;28;20026;-51
2021/09/05 11:36:10;;;;;;;5.90;3.33;;;;;;;;;;5034495;28;20497;-51
2021/09/05 11:38:37;;;;;;;8.52;4.20;;;;;;;;;;5033406;28;20022;-51
2021/09/05 11:41:03;;;;;;;7.10;3.88;;;;;;;;;;5034767;28;20034;-51
2021/09/05 11:43:34;;;;;;;7.03;4.22;;;;;;;;;;5034062;28;20441;-51
2021/09/05 11:46:08;;;;;;;4.03;2.83;;;;;;;;;;5035052;28;20033;-51
2021/09/05 11:48:34;;;;;;;6.05;3.50;;;;;;;;;;5033881;28;20039;-51
2021/09/05 11:51:02;;;;;;;4.28;2.92;;;;;;;;;;5034145;28;20025;-51
2021/09/05 11:53:28;;;;;;;5.18;2.60;;;;;;;;;;5034677;28;20029;-51
2021/09/05 11:55:54;;;;;;;8.77;3.63;;;;;;;;;;5034463;28;20031;-51
2021/09/05 11:58:20;;;;;;;6.30;3.45;;;;;;;;;;5032894;28;20033;-51
2021/09/05 12:00:46;;;;;;;19.90;3.60;;;;;;;;;;5034369;28;20022;-51
2021/09/05 12:03:13;;;;;;;9.60;4.22;;;;;;;;;;5034291;28;20060;-51
2021/09/05 12:05:40;;;;;;;9.55;3.67;;;;;;;;;;5033985;28;20065;-51
2021/09/05 12:08:06;;;;;;;8.25;4.15;;;;;;;;;;5033711;28;20025;-51
2021/09/05 12:10:33;;;;;;;7.40;3.40;;;;;;;;;;5033100;28;20075;-51
2021/09/05 12:13:08;;;;;;;5.43;3.25;;;;;;;;;;5034272;28;20075;-51
2021/09/05 12:15:39;;;;;;;7.90;3.72;;;;;;;;;;5033715;28;20490;-51
2021/09/05 12:18:23;;;;;;;5.85;3.30;;;;;;;;;;5033216;28;20347;-51
2021/09/05 12:20:51;;;;;;;6.40;3.00;;;;;;;;;;5033837;28;20120;-52
2021/09/05 12:23:21;;;;;;;7.25;3.63;;;;;;;;;;5034146;28;20067;-51
2021/09/05 12:25:47;;;;;;;5.13;3.08;;;;;;;;;;5034055;28;20104;-51
2021/09/05 12:28:19;;;;;;;6.20;3.60;;;;;;;;;;5033241;28;20455;-52
2021/09/05 12:30:48;;;;;;;6.80;3.92;;;;;;;;;;5033503;28;20038;-51
2021/09/05 12:33:14;;;;;;;6.30;3.70;;;;;;;;;;5033493;28;20427;-51
2021/09/05 12:35:41;;;;;;;4.97;3.05;;;;;;;;;;5033300;28;20025;-51
2021/09/05 12:38:09;;;;;;;5.05;2.88;;;;;;;;;;5032871;28;20351;-51
2021/09/05 12:40:36;;;;;;;5.32;3.65;;;;;;;;;;5033648;28;20398;-51
2021/09/05 12:43:02;;;;;;;6.22;3.90;;;;;;;;;;5034018;28;20116;-51
2021/09/05 12:45:28;;;;;;;6.75;2.88;;;;;;;;;;5032561;28;20156;-51
2021/09/05 12:48:09;;;;;;;6.00;3.70;;;;;;;;;;5032415;28;20044;-51
2021/09/05 12:50:35;;;;;;;5.53;2.97;;;;;;;;;;5032408;28;20474;-51
2021/09/05 12:53:08;;;;;;;6.50;3.58;;;;;;;;;;5033173;28;20021;-52
2021/09/05 12:55:34;;;;;;;6.28;3.50;;;;;;;;;;5032040;28;20449;-51
2021/09/05 12:58:00;;;;;;;6.32;3.42;;;;;;;;;;5032289;28;20470;-52
2021/09/05 13:00:26;;;;;;;6.90;3.83;;;;;;;;;;5032270;28;20083;-51
2021/09/05 13:02:52;;;;;;;5.20;3.40;;;;;;;;;;5033103;28;20108;-51
2021/09/05 13:05:17;;;;;;;5.53;3.10;;;;;;;;;;5032531;28;20473;-51
2021/09/05 13:07:43;;;;;;;5.32;3.70;;;;;;;;;;5032354;28;20072;-51
2021/09/05 13:10:10;;;;;;;5.88;3.38;;;;;;;;;;5033420;28;20025;-51
2021/09/05 13:12:36;;;;;;;6.63;2.97;;;;;;;;;;5033230;28;20028;-51
2021/09/05 13:15:02;;;;;;;5.65;2.70;;;;;;;;;;5032363;28;20029;-52
2021/09/05 13:17:28;;;;;;;4.70;3.28;;;;;;;;;;5032359;28;20025;-51
2021/09/05 13:19:54;;;;;;;4.38;2.78;;;;;;;;;;5031835;28;20024;-51
2021/09/05 13:22:20;;;;;;;6.28;3.20;;;;;;;;;;5032364;28;20037;-52
2021/09/05 13:24:46;;;;;;;5.03;3.38;;;;;;;;;;5032693;28;20024;-52
2021/09/05 13:27:11;;;;;;;5.80;3.03;;;;;;;;;;5031750;28;20447;-51
2021/09/05 13:29:37;;;;;;;4.57;2.72;;;;;;;;;;5031507;28;20041;-52
2021/09/05 13:32:05;;;;;;;6.15;3.40;;;;;;;;;;5033366;28;20045;-52
2021/09/05 13:34:31;;;;;;;6.97;3.20;;;;;;;;;;5032376;28;20026;-52
2021/09/05 13:36:57;;;;;;;5.65;3.05;;;;;;;;;;5031557;28;20022;-52
2021/09/05 13:39:23;;;;;;;6.63;3.42;;;;;;;;;;5032922;28;20025;-52
2021/09/05 13:41:49;;;;;;;6.47;3.78;;;;;;;;;;5032892;28;20029;-52
2021/09/05 13:44:16;;;;;;;4.70;3.00;;;;;;;;;;5032013;28;20032;-52
2021/09/05 13:46:42;;;;;;;6.15;3.47;;;;;;;;;;5032647;28;20025;-52
2021/09/05 13:49:08;;;;;;;5.07;3.22;;;;;;;;;;5031455;28;20048;-52
2021/09/05 13:51:34;;;;;;;6.32;3.20;;;;;;;;;;5032148;28;20026;-52
2021/09/05 13:54:02;;;;;;;9.38;3.38;;;;;;;;;;5032502;28;20102;-52
2021/09/05 13:56:28;;;;;;;8.48;3.40;;;;;;;;;;5031801;28;20033;-52
2021/09/05 13:58:53;;;;;;;5.45;3.35;;;;;;;;;;5032069;28;20029;-52
2021/09/05 14:01:20;;;;;;;6.78;3.28;;;;;;;;;;5033503;28;20076;-52
2021/09/05 14:03:46;;;;;;;5.45;3.20;;;;;;;;;;5037079;28;20025;-52
2021/09/05 14:06:14;;;;;;;9.00;3.75;;;;;;;;;;5035997;28;20516;-52
2021/09/05 14:08:40;;;;;;;5.78;3.25;;;;;;;;;;5035821;28;20088;-52
2021/09/05 14:11:06;;;;;;;5.75;3.28;;;;;;;;;;5036558;28;20018;-52
2021/09/05 14:13:32;;;;;;;5.28;3.25;;;;;;;;;;5036662;28;20041;-52
2021/09/05 14:15:58;;;;;;;7.55;3.38;;;;;;;;;;5035335;28;20037;-52
2021/09/05 14:18:23;;;;;;;6.70;3.78;;;;;;;;;;5035746;28;20017;-52
2021/09/05 14:20:50;;;;;;;4.85;2.72;;;;;;;;;;5035943;28;20099;-52
2021/09/05 14:23:16;;;;;;;4.75;2.83;;;;;;;;;;5036382;28;20036;-52
2021/09/05 14:25:45;;;;;;;9.38;3.08;;;;;;;;;;5036231;28;20447;-52
2021/09/05 14:28:14;;;;;;;4.47;2.60;;;;;;;;;;5035596;28;20084;-52
2021/09/05 14:47:54;;;;;;;5.10;3.40;;;;;;;;;;5035008;28;20041;-52
2021/09/05 14:50:11;;;;;;;4.90;3.20;;;;;;;;;;5036231;28;20124;-52
2021/09/05 14:55:18;;;;;;;6.95;3.42;;;;;;;;;;5034430;28;20044;-52
2021/09/05 14:57:44;;;;;;;5.55;3.15;;;;;;;;;;5035266;28;20021;-52
2021/09/05 15:00:10;;;;;;;7.95;3.28;;;;;;;;;;5034776;28;20029;-52